sensor_id;sensor_type;location;lat;lon;timestamp;pressure;altitude;pressure_sealevel;temperature;humidity
38022;BME280;23832;43.216;27.946;2022-08-14T00:01:48;99993.84;;;25.78;100.00
38022;BME280;23832;43.216;27.946;2022-08-14T00:03:50;99984.97;;;25.77;100.00
38022;BME280;23832;43.216;27.946;2022-08-14T00:05:54;99986.06;;;25.76;100.00
38022;BME280;23832;43.216;27.946;2022-08-14T00:07:59;99979.84;;;25.75;100.00
38022;BME280;23832;43.216;27.946;2022-08-14T00:10:05;99976.94;;;25.72;100.00
38022;BME280;23832;43.216;27.946;2022-08-14T00:12:08;99968.56;;;25.68;100.00
38022;BME280;23832;43.216;27.946;2022-08-14T00:14:10;99972.06;;;25.69;100.00
38022;BME280;23832;43.216;27.946;2022-08-14T00:16:12;99966.66;;;25.69;100.00
38022;BME280;23832;43.216;27.946;2022-08-14T00:18:16;99959.97;;;25.66;100.00
38022;BME280;23832;43.216;27.946;2022-08-14T00:20:21;99957.56;;;25.65;100.00
38022;BME280;23832;43.216;27.946;2022-08-14T00:22:23;99950.03;;;25.62;100.00
38022;BME280;23832;43.216;27.946;2022-08-14T00:24:27;99946.75;;;25.65;100.00
38022;BME280;23832;43.216;27.946;2022-08-14T00:26:29;99930.41;;;25.56;100.00
38022;BME280;23832;43.216;27.946;2022-08-14T00:28:32;99947.84;;;25.64;100.00
38022;BME280;23832;43.216;27.946;2022-08-14T00:30:34;99946.25;;;25.63;100.00
38022;BME280;23832;43.216;27.946;2022-08-14T00:32:37;99942.00;;;25.57;100.00
38022;BME280;23832;43.216;27.946;2022-08-14T00:34:39;99955.44;;;25.62;100.00
38022;BME280;23832;43.216;27.946;2022-08-14T00:36:41;99947.59;;;25.60;100.00
38022;BME280;23832;43.216;27.946;2022-08-14T00:38:43;99950.59;;;25.59;100.00
38022;BME280;23832;43.216;27.946;2022-08-14T00:40:50;99949.13;;;25.47;100.00
38022;BME280;23832;43.216;27.946;2022-08-14T00:42:52;99961.47;;;25.54;100.00
38022;BME280;23832;43.216;27.946;2022-08-14T00:44:54;99963.13;;;25.50;100.00
38022;BME280;23832;43.216;27.946;2022-08-14T00:46:59;99962.09;;;25.45;100.00
38022;BME280;23832;43.216;27.946;2022-08-14T00:49:03;99965.91;;;25.44;100.00
38022;BME280;23832;43.216;27.946;2022-08-14T00:51:07;99952.25;;;25.36;100.00
38022;BME280;23832;43.216;27.946;2022-08-14T00:53:09;99952.97;;;25.41;100.00
38022;BME280;23832;43.216;27.946;2022-08-14T00:55:11;99962.44;;;25.39;100.00
38022;BME280;23832;43.216;27.946;2022-08-14T00:57:15;99963.25;;;25.39;100.00
38022;BME280;23832;43.216;27.946;2022-08-14T00:59:18;99961.94;;;25.37;100.00
38022;BME280;23832;43.216;27.946;2022-08-14T01:01:22;99956.53;;;25.37;100.00
38022;BME280;23832;43.216;27.946;2022-08-14T01:03:25;99961.94;;;25.37;100.00
38022;BME280;23832;43.216;27.946;2022-08-14T01:05:28;99970.59;;;25.34;100.00
38022;BME280;23832;43.216;27.946;2022-08-14T01:07:30;99967.97;;;25.29;100.00
38022;BME280;23832;43.216;27.946;2022-08-14T01:09:35;99981.38;;;25.34;100.00
38022;BME280;23832;43.216;27.946;2022-08-14T01:11:38;99977.06;;;25.33;100.00
38022;BME280;23832;43.216;27.946;2022-08-14T01:13:43;99979.78;;;25.33;100.00
38022;BME280;23832;43.216;27.946;2022-08-14T01:15:50;99981.16;;;25.30;100.00
38022;BME280;23832;43.216;27.946;2022-08-14T01:17:53;99984.16;;;25.29;100.00
38022;BME280;23832;43.216;27.946;2022-08-14T01:20:13;99975.53;;;25.27;100.00
38022;BME280;23832;43.216;27.946;2022-08-14T01:22:34;99971.50;;;25.24;100.00
38022;BME280;23832;43.216;27.946;2022-08-14T01:24:36;99973.41;;;25.24;100.00
38022;BME280;23832;43.216;27.946;2022-08-14T01:26:38;99963.69;;;25.23;100.00
38022;BME280;23832;43.216;27.946;2022-08-14T01:28:41;99961.28;;;25.21;100.00
38022;BME280;23832;43.216;27.946;2022-08-14T01:30:45;99958.88;;;25.19;100.00
38022;BME280;23832;43.216;27.946;2022-08-14T01:32:47;99964.56;;;25.18;100.00
38022;BME280;23832;43.216;27.946;2022-08-14T01:34:51;99971.06;;;25.17;100.00
38022;BME280;23832;43.216;27.946;2022-08-14T01:36:53;99977.81;;;25.14;100.00
38022;BME280;23832;43.216;27.946;2022-08-14T01:38:57;99975.41;;;25.13;100.00
38022;BME280;23832;43.216;27.946;2022-08-14T01:40:59;99967.88;;;25.10;100.00
38022;BME280;23832;43.216;27.946;2022-08-14T01:43:01;99972.47;;;25.09;100.00
38022;BME280;23832;43.216;27.946;2022-08-14T01:45:04;99975.97;;;25.10;100.00
38022;BME280;23832;43.216;27.946;2022-08-14T01:47:12;99968.44;;;25.07;100.00
38022;BME280;23832;43.216;27.946;2022-08-14T01:49:14;99971.97;;;25.07;100.00
38022;BME280;23832;43.216;27.946;2022-08-14T01:51:18;99967.63;;;25.06;100.00
38022;BME280;23832;43.216;27.946;2022-08-14T01:53:22;99970.09;;;25.03;100.00
38022;BME280;23832;43.216;27.946;2022-08-14T01:55:27;99966.31;;;25.04;100.00
38022;BME280;23832;43.216;27.946;2022-08-14T01:57:32;99969.53;;;25.06;100.00
38022;BME280;23832;43.216;27.946;2022-08-14T01:59:37;99972.81;;;25.03;100.00
38022;BME280;23832;43.216;27.946;2022-08-14T02:01:43;99967.41;;;25.03;100.00
38022;BME280;23832;43.216;27.946;2022-08-14T02:03:46;99965.53;;;25.03;100.00
38022;BME280;23832;43.216;27.946;2022-08-14T02:05:48;99957.44;;;24.98;100.00
38022;BME280;23832;43.216;27.946;2022-08-14T02:07:50;99955.03;;;24.97;100.00
38022;BME280;23832;43.216;27.946;2022-08-14T02:09:52;99959.31;;;24.98;100.00
38022;BME280;23832;43.216;27.946;2022-08-14T02:11:55;99960.41;;;24.97;100.00
38022;BME280;23832;43.216;27.946;2022-08-14T02:13:59;99959.91;;;24.95;100.00
38022;BME280;23832;43.216;27.946;2022-08-14T02:16:02;99953.50;;;24.90;100.00
38022;BME280;23832;43.216;27.946;2022-08-14T02:18:04;99956.72;;;24.87;100.00
38022;BME280;23832;43.216;27.946;2022-08-14T02:20:07;99960.53;;;24.86;100.00
38022;BME280;23832;43.216;27.946;2022-08-14T02:22:10;99955.13;;;24.86;100.00
38022;BME280;23832;43.216;27.946;2022-08-14T02:24:13;99952.13;;;24.88;100.00
38022;BME280;23832;43.216;27.946;2022-08-14T02:26:18;99956.22;;;24.85;100.00
38022;BME280;23832;43.216;27.946;2022-08-14T02:28:22;99955.41;;;24.85;100.00
38022;BME280;23832;43.216;27.946;2022-08-14T02:30:24;99947.63;;;24.83;100.00
38022;BME280;23832;43.216;27.946;2022-08-14T02:32:27;99952.22;;;24.83;100.00
38022;BME280;23832;43.216;27.946;2022-08-14T02:34:32;99943.59;;;24.81;100.00
38022;BME280;23832;43.216;27.946;2022-08-14T02:36:35;99950.88;;;24.80;100.00
38022;BME280;23832;43.216;27.946;2022-08-14T02:38:38;99944.66;;;24.80;100.00
38022;BME280;23832;43.216;27.946;2022-08-14T02:40:40;99955.72;;;24.78;100.00
38022;BME280;23832;43.216;27.946;2022-08-14T02:42:42;99963.81;;;24.78;100.00
38022;BME280;23832;43.216;27.946;2022-08-14T02:44:46;99953.63;;;24.75;100.00
38022;BME280;23832;43.216;27.946;2022-08-14T02:46:50;99949.03;;;24.76;100.00
38022;BME280;23832;43.216;27.946;2022-08-14T02:48:55;99950.13;;;24.75;100.00
38022;BME280;23832;43.216;27.946;2022-08-14T02:50:57;99947.16;;;24.71;100.00
38022;BME280;23832;43.216;27.946;2022-08-14T02:53:00;99949.34;;;24.69;100.00
38022;BME280;23832;43.216;27.946;2022-08-14T02:55:03;99944.53;;;24.66;100.00
38022;BME280;23832;43.216;27.946;2022-08-14T02:57:05;99941.03;;;24.66;100.00
38022;BME280;23832;43.216;27.946;2022-08-14T02:59:09;99944.53;;;24.66;100.00
38022;BME280;23832;43.216;27.946;2022-08-14T03:01:16;99944.25;;;24.68;100.00
38022;BME280;23832;43.216;27.946;2022-08-14T03:03:19;99930.47;;;24.69;100.00
38022;BME280;23832;43.216;27.946;2022-08-14T03:05:23;99937.47;;;24.70;100.00
38022;BME280;23832;43.216;27.946;2022-08-14T03:07:29;99931.28;;;24.70;100.00
38022;BME280;23832;43.216;27.946;2022-08-14T03:09:31;99936.38;;;24.71;100.00
38022;BME280;23832;43.216;27.946;2022-08-14T03:11:33;99931.00;;;24.71;100.00
38022;BME280;23832;43.216;27.946;2022-08-14T03:13:37;99920.56;;;24.65;100.00
38022;BME280;23832;43.216;27.946;2022-08-14T03:15:39;99926.75;;;24.65;100.00
38022;BME280;23832;43.216;27.946;2022-08-14T03:17:45;99931.56;;;24.68;100.00
38022;BME280;23832;43.216;27.946;2022-08-14T03:19:52;99938.84;;;24.68;100.00
38022;BME280;23832;43.216;27.946;2022-08-14T03:21:54;99928.38;;;24.66;100.00
38022;BME280;23832;43.216;27.946;2022-08-14T03:23:56;99935.34;;;24.67;100.00
38022;BME280;23832;43.216;27.946;2022-08-14T03:26:08;99933.75;;;24.66;100.00
38022;BME280;23832;43.216;27.946;2022-08-14T03:28:12;99936.97;;;24.68;100.00
38022;BME280;23832;43.216;27.946;2022-08-14T03:30:14;99939.16;;;24.66;100.00
38022;BME280;23832;43.216;27.946;2022-08-14T03:32:16;99931.56;;;24.68;100.00
38022;BME280;23832;43.216;27.946;2022-08-14T03:34:19;99935.59;;;24.71;100.00
38022;BME280;23832;43.216;27.946;2022-08-14T03:36:22;99936.38;;;24.71;100.00
38022;BME280;23832;43.216;27.946;2022-08-14T03:38:26;99933.94;;;24.75;100.00
38022;BME280;23832;43.216;27.946;2022-08-14T03:40:30;99938.47;;;24.79;100.00
38022;BME280;23832;43.216;27.946;2022-08-14T03:42:31;99938.72;;;24.83;100.00
38022;BME280;23832;43.216;27.946;2022-08-14T03:44:34;99936.78;;;24.88;100.00
38022;BME280;23832;43.216;27.946;2022-08-14T03:46:38;99936.72;;;24.94;100.00
38022;BME280;23832;43.216;27.946;2022-08-14T03:48:44;99934.50;;;25.01;100.00
38022;BME280;23832;43.216;27.946;2022-08-14T03:50:49;99936.38;;;25.05;100.00
38022;BME280;23832;43.216;27.946;2022-08-14T03:52:52;99938.72;;;25.12;100.00
38022;BME280;23832;43.216;27.946;2022-08-14T03:54:54;99939.75;;;25.16;100.00
38022;BME280;23832;43.216;27.946;2022-08-14T03:56:56;99938.63;;;25.22;100.00
38022;BME280;23832;43.216;27.946;2022-08-14T03:59:00;99932.94;;;25.24;100.00
38022;BME280;23832;43.216;27.946;2022-08-14T04:01:11;99937.41;;;25.33;100.00
38022;BME280;23832;43.216;27.946;2022-08-14T04:03:13;99942.47;;;25.40;100.00
38022;BME280;23832;43.216;27.946;2022-08-14T04:05:18;99936.72;;;25.46;100.00
38022;BME280;23832;43.216;27.946;2022-08-14T04:07:22;99932.88;;;25.53;100.00
38022;BME280;23832;43.216;27.946;2022-08-14T04:09:24;99938.19;;;25.58;100.00
38022;BME280;23832;43.216;27.946;2022-08-14T04:11:26;99928.44;;;25.62;100.00
38022;BME280;23832;43.216;27.946;2022-08-14T04:13:29;99933.78;;;25.67;100.00
38022;BME280;23832;43.216;27.946;2022-08-14T04:15:32;99931.84;;;25.72;100.00
38022;BME280;23832;43.216;27.946;2022-08-14T04:17:34;99930.97;;;25.77;100.00
38022;BME280;23832;43.216;27.946;2022-08-14T04:19:40;99925.56;;;25.77;100.00
38022;BME280;23832;43.216;27.946;2022-08-14T04:21:43;99934.91;;;25.85;100.00
38022;BME280;23832;43.216;27.946;2022-08-14T04:23:47;99944.06;;;25.89;100.00
38022;BME280;23832;43.216;27.946;2022-08-14T04:25:49;99936.97;;;25.93;100.00
38022;BME280;23832;43.216;27.946;2022-08-14T04:27:53;99939.06;;;25.96;100.00
38022;BME280;23832;43.216;27.946;2022-08-14T04:29:55;99943.91;;;25.99;100.00
38022;BME280;23832;43.216;27.946;2022-08-14T04:31:57;99945.72;;;26.03;100.00
38022;BME280;23832;43.216;27.946;2022-08-14T04:33:59;99947.84;;;26.07;100.00
38022;BME280;23832;43.216;27.946;2022-08-14T04:36:05;99943.47;;;26.11;100.00
38022;BME280;23832;43.216;27.946;2022-08-14T04:38:14;99948.28;;;26.14;100.00
38022;BME280;23832;43.216;27.946;2022-08-14T04:40:35;99950.91;;;26.19;100.00
38022;BME280;23832;43.216;27.946;2022-08-14T04:42:55;99949.81;;;26.20;100.00
38022;BME280;23832;43.216;27.946;2022-08-14T04:45:15;99956.22;;;26.24;100.00
38022;BME280;23832;43.216;27.946;2022-08-14T04:47:17;99947.25;;;26.28;100.00
38022;BME280;23832;43.216;27.946;2022-08-14T04:49:36;99943.81;;;26.23;100.00
38022;BME280;23832;43.216;27.946;2022-08-14T04:51:37;99944.25;;;26.30;100.00
38022;BME280;23832;43.216;27.946;2022-08-14T04:53:41;99941.47;;;26.35;100.00
38022;BME280;23832;43.216;27.946;2022-08-14T04:55:46;99940.13;;;26.38;100.00
38022;BME280;23832;43.216;27.946;2022-08-14T04:57:48;99938.72;;;26.40;100.00
38022;BME280;23832;43.216;27.946;2022-08-14T04:59:50;99943.81;;;26.42;100.00
38022;BME280;23832;43.216;27.946;2022-08-14T05:01:53;99940.06;;;26.43;100.00
38022;BME280;23832;43.216;27.946;2022-08-14T05:03:57;99939.16;;;26.47;100.00
38022;BME280;23832;43.216;27.946;2022-08-14T05:06:00;99940.38;;;26.55;100.00
38022;BME280;23832;43.216;27.946;2022-08-14T05:08:05;99939.72;;;26.63;100.00
38022;BME280;23832;43.216;27.946;2022-08-14T05:10:09;99938.72;;;26.73;100.00
38022;BME280;23832;43.216;27.946;2022-08-14T05:12:13;99934.44;;;26.85;100.00
38022;BME280;23832;43.216;27.946;2022-08-14T05:14:15;99936.69;;;26.97;100.00
38022;BME280;23832;43.216;27.946;2022-08-14T05:16:20;99928.09;;;27.09;100.00
38022;BME280;23832;43.216;27.946;2022-08-14T05:18:23;99925.69;;;27.21;100.00
38022;BME280;23832;43.216;27.946;2022-08-14T05:20:26;99925.50;;;27.31;100.00
38022;BME280;23832;43.216;27.946;2022-08-14T05:22:28;99930.72;;;27.41;100.00
38022;BME280;23832;43.216;27.946;2022-08-14T05:24:30;99919.69;;;27.52;100.00
38022;BME280;23832;43.216;27.946;2022-08-14T05:26:32;99922.66;;;27.64;100.00
38022;BME280;23832;43.216;27.946;2022-08-14T05:28:35;99911.47;;;27.70;100.00
38022;BME280;23832;43.216;27.946;2022-08-14T05:30:38;99920.06;;;27.86;100.00
38022;BME280;23832;43.216;27.946;2022-08-14T05:32:43;99924.13;;;27.97;100.00
38022;BME280;23832;43.216;27.946;2022-08-14T05:34:46;99924.38;;;28.10;100.00
38022;BME280;23832;43.216;27.946;2022-08-14T05:36:48;99920.31;;;28.21;100.00
38022;BME280;23832;43.216;27.946;2022-08-14T05:38:51;99919.31;;;28.31;100.00
38022;BME280;23832;43.216;27.946;2022-08-14T05:40:54;99914.47;;;28.41;100.00
38022;BME280;23832;43.216;27.946;2022-08-14T05:42:57;99907.78;;;28.47;100.00
38022;BME280;23832;43.216;27.946;2022-08-14T05:45:01;99909.16;;;28.59;100.00
38022;BME280;23832;43.216;27.946;2022-08-14T05:47:03;99917.34;;;28.67;100.00
38022;BME280;23832;43.216;27.946;2022-08-14T05:49:05;99884.44;;;28.60;100.00
38022;BME280;23832;43.216;27.946;2022-08-14T05:51:07;99905.91;;;28.79;100.00
38022;BME280;23832;43.216;27.946;2022-08-14T05:53:10;99913.41;;;28.82;100.00
38022;BME280;23832;43.216;27.946;2022-08-14T05:55:13;99906.88;;;28.83;100.00
38022;BME280;23832;43.216;27.946;2022-08-14T05:57:15;99915.81;;;28.83;100.00
38022;BME280;23832;43.216;27.946;2022-08-14T05:59:17;99909.09;;;28.81;100.00
38022;BME280;23832;43.216;27.946;2022-08-14T06:01:21;99913.25;;;28.78;100.00
38022;BME280;23832;43.216;27.946;2022-08-14T06:03:22;99913.84;;;28.75;100.00
38022;BME280;23832;43.216;27.946;2022-08-14T06:05:25;99917.06;;;28.77;100.00
38022;BME280;23832;43.216;27.946;2022-08-14T06:07:27;99919.47;;;28.79;100.00
38022;BME280;23832;43.216;27.946;2022-08-14T06:09:29;99916.06;;;28.73;100.00
38022;BME280;23832;43.216;27.946;2022-08-14T06:11:31;99915.28;;;28.73;100.00
38022;BME280;23832;43.216;27.946;2022-08-14T06:13:35;99912.25;;;28.74;100.00
38022;BME280;23832;43.216;27.946;2022-08-14T06:15:37;99911.31;;;28.79;100.00
38022;BME280;23832;43.216;27.946;2022-08-14T06:17:46;99915.00;;;28.83;100.00
38022;BME280;23832;43.216;27.946;2022-08-14T06:19:48;99903.03;;;28.84;100.00
38022;BME280;23832;43.216;27.946;2022-08-14T06:21:52;99907.53;;;28.89;100.00
38022;BME280;23832;43.216;27.946;2022-08-14T06:23:53;99909.22;;;28.98;100.00
38022;BME280;23832;43.216;27.946;2022-08-14T06:25:55;99906.06;;;29.05;100.00
38022;BME280;23832;43.216;27.946;2022-08-14T06:27:57;99900.16;;;29.11;100.00
38022;BME280;23832;43.216;27.946;2022-08-14T06:29:59;99905.13;;;29.18;100.00
38022;BME280;23832;43.216;27.946;2022-08-14T06:32:02;99911.19;;;29.15;100.00
38022;BME280;23832;43.216;27.946;2022-08-14T06:34:06;99905.47;;;29.25;100.00
38022;BME280;23832;43.216;27.946;2022-08-14T06:36:08;99906.13;;;29.31;100.00
38022;BME280;23832;43.216;27.946;2022-08-14T06:38:14;99901.69;;;29.44;100.00
38022;BME280;23832;43.216;27.946;2022-08-14T06:40:18;99882.56;;;29.49;100.00
38022;BME280;23832;43.216;27.946;2022-08-14T06:42:20;99902.72;;;29.74;100.00
38022;BME280;23832;43.216;27.946;2022-08-14T06:44:23;99895.06;;;29.84;100.00
38022;BME280;23832;43.216;27.946;2022-08-14T06:46:27;99900.81;;;30.00;100.00
38022;BME280;23832;43.216;27.946;2022-08-14T06:48:30;99899.72;;;30.10;100.00
38022;BME280;23832;43.216;27.946;2022-08-14T06:50:34;99891.88;;;30.17;100.00
38022;BME280;23832;43.216;27.946;2022-08-14T06:52:37;99906.44;;;30.30;100.00
38022;BME280;23832;43.216;27.946;2022-08-14T06:54:39;99892.03;;;30.38;100.00
38022;BME280;23832;43.216;27.946;2022-08-14T06:56:41;99904.97;;;30.49;100.00
38022;BME280;23832;43.216;27.946;2022-08-14T06:58:44;99896.91;;;30.62;100.00
38022;BME280;23832;43.216;27.946;2022-08-14T07:00:47;99897.91;;;30.66;100.00
38022;BME280;23832;43.216;27.946;2022-08-14T07:03:02;99889.56;;;30.62;100.00
38022;BME280;23832;43.216;27.946;2022-08-14T07:05:23;99889.88;;;30.61;100.00
38022;BME280;23832;43.216;27.946;2022-08-14T07:07:46;99897.28;;;30.43;100.00
38022;BME280;23832;43.216;27.946;2022-08-14T07:09:48;99897.16;;;30.31;100.00
38022;BME280;23832;43.216;27.946;2022-08-14T07:11:52;99895.25;;;30.22;100.00
38022;BME280;23832;43.216;27.946;2022-08-14T07:13:54;99893.19;;;30.11;100.00
38022;BME280;23832;43.216;27.946;2022-08-14T07:15:56;99905.63;;;29.94;100.00
38022;BME280;23832;43.216;27.946;2022-08-14T07:17:59;99899.88;;;29.87;100.00
38022;BME280;23832;43.216;27.946;2022-08-14T07:20:02;99898.88;;;29.83;100.00
38022;BME280;23832;43.216;27.946;2022-08-14T07:22:04;99899.06;;;29.87;100.00
38022;BME280;23832;43.216;27.946;2022-08-14T07:24:08;99900.50;;;29.84;100.00
38022;BME280;23832;43.216;27.946;2022-08-14T07:26:10;99897.16;;;29.87;100.00
38022;BME280;23832;43.216;27.946;2022-08-14T07:28:14;99901.13;;;29.99;100.00
38022;BME280;23832;43.216;27.946;2022-08-14T07:30:18;99906.91;;;29.97;100.00
38022;BME280;23832;43.216;27.946;2022-08-14T07:32:20;99900.19;;;29.94;100.00
38022;BME280;23832;43.216;27.946;2022-08-14T07:34:22;99900.34;;;29.98;100.00
38022;BME280;23832;43.216;27.946;2022-08-14T07:36:25;99904.03;;;30.02;100.00
38022;BME280;23832;43.216;27.946;2022-08-14T07:38:28;99898.41;;;29.99;100.00
38022;BME280;23832;43.216;27.946;2022-08-14T07:40:32;99895.88;;;29.93;100.00
38022;BME280;23832;43.216;27.946;2022-08-14T07:42:35;99898.41;;;29.90;100.00
38022;BME280;23832;43.216;27.946;2022-08-14T07:44:37;99895.38;;;29.91;100.00
38022;BME280;23832;43.216;27.946;2022-08-14T07:46:40;99898.75;;;29.97;100.00
38022;BME280;23832;43.216;27.946;2022-08-14T07:48:41;99890.94;;;30.13;100.00
38022;BME280;23832;43.216;27.946;2022-08-14T07:50:44;99892.84;;;30.21;100.00
38022;BME280;23832;43.216;27.946;2022-08-14T07:52:47;99888.19;;;30.39;100.00
38022;BME280;23832;43.216;27.946;2022-08-14T07:54:49;99880.94;;;30.51;100.00
38022;BME280;23832;43.216;27.946;2022-08-14T07:56:53;99881.25;;;30.76;100.00
38022;BME280;23832;43.216;27.946;2022-08-14T07:58:54;99887.25;;;30.90;100.00
38022;BME280;23832;43.216;27.946;2022-08-14T08:00:57;99885.78;;;31.01;100.00
38022;BME280;23832;43.216;27.946;2022-08-14T08:02:59;99888.75;;;31.08;100.00
38022;BME280;23832;43.216;27.946;2022-08-14T08:05:02;99884.66;;;31.02;100.00
38022;BME280;23832;43.216;27.946;2022-08-14T08:07:05;99884.06;;;31.18;100.00
38022;BME280;23832;43.216;27.946;2022-08-14T08:09:08;99873.03;;;31.23;100.00
38022;BME280;23832;43.216;27.946;2022-08-14T08:11:10;99878.50;;;31.44;100.00
38022;BME280;23832;43.216;27.946;2022-08-14T08:13:17;99871.19;;;31.35;100.00
38022;BME280;23832;43.216;27.946;2022-08-14T08:15:19;99875.59;;;31.49;100.00
38022;BME280;23832;43.216;27.946;2022-08-14T08:17:22;99873.28;;;31.59;100.00
38022;BME280;23832;43.216;27.946;2022-08-14T08:19:25;99874.81;;;31.69;100.00
38022;BME280;23832;43.216;27.946;2022-08-14T08:21:27;99878.16;;;31.75;100.00
38022;BME280;23832;43.216;27.946;2022-08-14T08:23:30;99879.88;;;31.79;100.00
38022;BME280;23832;43.216;27.946;2022-08-14T08:25:34;99890.06;;;31.91;100.00
38022;BME280;23832;43.216;27.946;2022-08-14T08:27:37;99875.88;;;31.98;98.33
38022;BME280;23832;43.216;27.946;2022-08-14T08:29:41;99874.81;;;32.11;98.29
38022;BME280;23832;43.216;27.946;2022-08-14T08:31:46;99865.19;;;32.26;96.84
38022;BME280;23832;43.216;27.946;2022-08-14T08:33:51;99867.31;;;32.41;96.32
38022;BME280;23832;43.216;27.946;2022-08-14T08:35:56;99862.78;;;32.45;92.43
38022;BME280;23832;43.216;27.946;2022-08-14T08:38:03;99866.44;;;32.61;88.89
38022;BME280;23832;43.216;27.946;2022-08-14T08:40:06;99868.97;;;32.79;88.85
38022;BME280;23832;43.216;27.946;2022-08-14T08:42:08;99866.50;;;32.86;86.69
38022;BME280;23832;43.216;27.946;2022-08-14T08:44:10;99868.22;;;33.02;85.67
38022;BME280;23832;43.216;27.946;2022-08-14T08:46:18;99869.25;;;33.10;83.13
38022;BME280;23832;43.216;27.946;2022-08-14T08:48:21;99855.91;;;33.21;82.74
38022;BME280;23832;43.216;27.946;2022-08-14T08:50:30;99862.75;;;33.39;81.93
38022;BME280;23832;43.216;27.946;2022-08-14T08:52:32;99866.16;;;33.48;79.53
38022;BME280;23832;43.216;27.946;2022-08-14T08:54:34;99859.41;;;33.58;79.05
38022;BME280;23832;43.216;27.946;2022-08-14T08:56:40;99849.34;;;33.74;78.80
38022;BME280;23832;43.216;27.946;2022-08-14T08:58:42;99848.19;;;33.75;76.71
38022;BME280;23832;43.216;27.946;2022-08-14T09:00:46;99846.25;;;33.88;76.04
38022;BME280;23832;43.216;27.946;2022-08-14T09:02:54;99844.25;;;34.01;75.50
38022;BME280;23832;43.216;27.946;2022-08-14T09:05:00;99849.72;;;34.01;74.86
38022;BME280;23832;43.216;27.946;2022-08-14T09:07:05;99845.59;;;34.07;73.86
38022;BME280;23832;43.216;27.946;2022-08-14T09:09:17;99827.69;;;34.09;72.18
38022;BME280;23832;43.216;27.946;2022-08-14T09:11:19;99842.09;;;34.22;73.07
38022;BME280;23832;43.216;27.946;2022-08-14T09:13:24;99844.81;;;34.22;73.24
38022;BME280;23832;43.216;27.946;2022-08-14T09:15:26;99836.09;;;34.32;72.96
38022;BME280;23832;43.216;27.946;2022-08-14T09:17:32;99833.56;;;34.39;72.16
38022;BME280;23832;43.216;27.946;2022-08-14T09:19:38;99831.34;;;34.29;72.83
38022;BME280;23832;43.216;27.946;2022-08-14T09:21:40;99831.97;;;34.38;74.38
38022;BME280;23832;43.216;27.946;2022-08-14T09:23:44;99823.88;;;34.42;74.51
38022;BME280;23832;43.216;27.946;2022-08-14T09:25:48;99830.16;;;34.42;75.01
38022;BME280;23832;43.216;27.946;2022-08-14T09:27:50;99836.25;;;34.52;76.24
38022;BME280;23832;43.216;27.946;2022-08-14T09:29:52;99826.59;;;34.58;75.68
38022;BME280;23832;43.216;27.946;2022-08-14T09:31:57;99811.09;;;34.62;74.88
38022;BME280;23832;43.216;27.946;2022-08-14T09:34:12;99811.34;;;34.57;73.51
38022;BME280;23832;43.216;27.946;2022-08-14T09:38:57;99813.47;;;34.48;74.70
38022;BME280;23832;43.216;27.946;2022-08-14T09:41:09;99809.84;;;34.43;75.64
38022;BME280;23832;43.216;27.946;2022-08-14T09:43:26;99802.31;;;34.40;76.25
38022;BME280;23832;43.216;27.946;2022-08-14T09:45:33;99797.94;;;34.52;79.21
38022;BME280;23832;43.216;27.946;2022-08-14T09:47:43;99807.44;;;34.58;76.83
38022;BME280;23832;43.216;27.946;2022-08-14T09:49:46;99806.84;;;34.64;77.90
38022;BME280;23832;43.216;27.946;2022-08-14T09:51:51;99806.47;;;34.66;77.25
38022;BME280;23832;43.216;27.946;2022-08-14T09:54:00;99812.31;;;34.64;75.99
38022;BME280;23832;43.216;27.946;2022-08-14T09:56:06;99808.34;;;34.62;76.19
38022;BME280;23832;43.216;27.946;2022-08-14T09:58:10;99810.34;;;34.33;76.13
38022;BME280;23832;43.216;27.946;2022-08-14T10:00:13;99805.31;;;34.35;78.13
38022;BME280;23832;43.216;27.946;2022-08-14T10:02:19;99807.31;;;34.23;81.13
38022;BME280;23832;43.216;27.946;2022-08-14T10:04:24;99814.19;;;34.01;82.27
38022;BME280;23832;43.216;27.946;2022-08-14T10:06:28;99802.28;;;34.09;84.45
38022;BME280;23832;43.216;27.946;2022-08-14T10:08:39;99808.75;;;34.17;82.85
38022;BME280;23832;43.216;27.946;2022-08-14T10:10:42;99801.53;;;34.24;83.65
38022;BME280;23832;43.216;27.946;2022-08-14T10:12:45;99803.53;;;34.27;83.67
38022;BME280;23832;43.216;27.946;2022-08-14T10:14:48;99810.00;;;34.35;83.52
38022;BME280;23832;43.216;27.946;2022-08-14T10:16:52;99801.66;;;34.43;82.53
38022;BME280;23832;43.216;27.946;2022-08-14T10:19:05;99800.06;;;34.42;81.20
38022;BME280;23832;43.216;27.946;2022-08-14T10:21:15;99802.63;;;34.51;79.54
38022;BME280;23832;43.216;27.946;2022-08-14T10:23:20;99809.13;;;34.47;79.82
38022;BME280;23832;43.216;27.946;2022-08-14T10:25:24;99798.63;;;34.49;81.62
38022;BME280;23832;43.216;27.946;2022-08-14T10:27:27;99797.66;;;34.41;82.53
38022;BME280;23832;43.216;27.946;2022-08-14T10:29:31;99809.63;;;34.36;82.39
38022;BME280;23832;43.216;27.946;2022-08-14T10:31:34;99811.47;;;34.32;83.35
38022;BME280;23832;43.216;27.946;2022-08-14T10:33:37;99810.78;;;34.35;84.13
38022;BME280;23832;43.216;27.946;2022-08-14T10:35:40;99815.47;;;34.35;83.93
38022;BME280;23832;43.216;27.946;2022-08-14T10:37:49;99804.69;;;34.26;81.92
38022;BME280;23832;43.216;27.946;2022-08-14T10:39:59;99811.19;;;34.22;85.92
38022;BME280;23832;43.216;27.946;2022-08-14T10:42:05;99803.44;;;34.24;87.55
38022;BME280;23832;43.216;27.946;2022-08-14T10:44:10;99808.22;;;34.27;87.23
38022;BME280;23832;43.216;27.946;2022-08-14T10:46:14;99804.25;;;34.24;85.95